createdAt,value
2023-05-14T00:00:56.851Z,17.63
2023-05-14T00:03:24.540Z,17.15
2023-05-14T00:05:52.633Z,17.06
2023-05-14T00:08:21.700Z,17.54
2023-05-14T00:10:49.733Z,16.57
2023-05-14T00:13:17.401Z,17.19
2023-05-14T00:15:45.226Z,18.16
2023-05-14T00:18:13.458Z,17.41
2023-05-14T00:20:42.038Z,18.24
2023-05-14T00:23:09.790Z,17.92
2023-05-14T00:25:38.890Z,18.13
2023-05-14T00:28:06.868Z,17.47
2023-05-14T00:30:34.956Z,17.25
2023-05-14T00:33:02.718Z,17.01
2023-05-14T00:35:30.760Z,17.10
2023-05-14T00:37:58.469Z,16.66
2023-05-14T00:40:27.845Z,16.94
2023-05-14T00:42:57.512Z,16.94
2023-05-14T00:45:25.759Z,16.63
2023-05-14T00:47:53.789Z,17.30
2023-05-14T00:50:22.395Z,17.11
2023-05-14T00:52:50.795Z,17.65
2023-05-14T00:55:18.666Z,16.83
2023-05-14T00:57:46.438Z,17.15
2023-05-14T01:00:16.738Z,16.40
2023-05-14T01:02:44.524Z,17.36
2023-05-14T01:05:12.394Z,17.43
2023-05-14T01:07:46.380Z,17.05
2023-05-14T01:10:16.929Z,16.73
2023-05-14T01:12:51.709Z,17.53
2023-05-14T01:15:23.167Z,16.81
2023-05-14T01:17:53.567Z,17.06
2023-05-14T01:20:21.643Z,16.71
2023-05-14T01:22:51.131Z,16.65
2023-05-14T01:25:18.949Z,16.51
2023-05-14T01:27:51.454Z,16.16
2023-05-14T01:30:21.512Z,17.08
2023-05-14T01:32:52.709Z,17.35
2023-05-14T01:35:21.654Z,16.17
2023-05-14T01:37:51.440Z,16.29
2023-05-14T01:40:19.486Z,15.97
2023-05-14T01:42:47.501Z,17.08
2023-05-14T01:45:15.294Z,16.80
2023-05-14T01:47:43.102Z,16.97
2023-05-14T01:50:12.058Z,17.14
2023-05-14T01:52:39.807Z,16.96
2023-05-14T01:55:10.173Z,17.19
2023-05-14T01:57:37.858Z,17.47
2023-05-14T02:00:06.761Z,16.86
2023-05-14T02:02:34.516Z,17.09
2023-05-14T02:05:02.681Z,17.36
2023-05-14T02:07:31.332Z,17.29
2023-05-14T02:09:59.488Z,17.62
2023-05-14T02:12:28.572Z,17.53
2023-05-14T02:14:56.311Z,17.39
2023-05-14T02:17:24.992Z,18.14
2023-05-14T02:19:52.749Z,18.25
2023-05-14T02:22:20.478Z,17.51
2023-05-14T02:24:49.743Z,17.55
2023-05-14T02:27:17.648Z,17.39
2023-05-14T02:29:46.809Z,17.58
2023-05-14T02:32:14.534Z,17.17
2023-05-14T02:34:42.246Z,16.65
2023-05-14T02:37:09.929Z,16.62
2023-05-14T02:39:37.630Z,16.96
2023-05-14T02:42:06.911Z,17.43
2023-05-14T02:44:34.570Z,16.21
2023-05-14T02:47:04.064Z,16.63
2023-05-14T02:49:31.862Z,16.74
2023-05-14T02:52:00.908Z,16.97
2023-05-14T02:54:28.595Z,17.18
2023-05-14T02:56:56.284Z,17.55
2023-05-14T02:59:25.668Z,17.31
2023-05-14T03:01:54.096Z,17.44
2023-05-14T03:04:23.481Z,17.45
2023-05-14T03:06:51.295Z,16.98
2023-05-14T03:09:19.029Z,17.39
2023-05-14T03:11:47.100Z,17.29
2023-05-14T03:14:14.926Z,17.32
2023-05-14T03:16:42.672Z,17.51
2023-05-14T03:19:10.884Z,16.61
2023-05-14T03:21:40.019Z,17.15
2023-05-14T03:24:08.015Z,16.66
2023-05-14T03:26:35.741Z,16.55
2023-05-14T03:29:03.968Z,15.79
2023-05-14T03:31:31.656Z,15.72
2023-05-14T03:33:59.549Z,16.20
2023-05-14T03:36:27.241Z,16.71
2023-05-14T03:38:56.297Z,16.27
2023-05-14T03:41:24.268Z,16.12
2023-05-14T03:43:52.370Z,16.48
2023-05-14T03:46:20.044Z,16.36
2023-05-14T03:48:47.769Z,15.96
2023-05-14T03:51:15.692Z,16.44
2023-05-14T03:53:43.428Z,15.96
2023-05-14T03:56:12.520Z,16.85
2023-05-14T03:58:40.728Z,15.77
2023-05-14T04:01:08.391Z,15.52
2023-05-14T04:03:36.225Z,16.57
2023-05-14T04:06:04.091Z,16.17
2023-05-14T04:08:32.117Z,16.57
2023-05-14T04:10:59.798Z,16.68
2023-05-14T04:13:28.901Z,16.48
2023-05-14T04:15:56.932Z,16.42
2023-05-14T04:18:24.719Z,16.48
2023-05-14T04:20:52.420Z,17.65
2023-05-14T04:23:20.100Z,16.37
2023-05-14T04:25:47.764Z,16.72
2023-05-14T04:28:15.650Z,16.95
2023-05-14T04:30:45.683Z,17.20
2023-05-14T04:33:13.471Z,17.48
2023-05-14T04:35:41.548Z,17.49
2023-05-14T04:38:10.050Z,17.72
2023-05-14T04:40:37.891Z,17.31
2023-05-14T04:43:05.569Z,16.88
2023-05-14T04:45:34.341Z,17.48
2023-05-14T04:48:03.849Z,18.01
2023-05-14T04:50:38.604Z,17.11
2023-05-14T04:53:06.302Z,17.80
2023-05-14T04:55:34.287Z,17.74
2023-05-14T04:58:02.309Z,17.57
2023-05-14T05:00:30.530Z,17.65
2023-05-14T05:02:58.316Z,17.62
2023-05-14T05:05:27.484Z,17.36
2023-05-14T05:07:55.682Z,17.28
2023-05-14T05:10:23.829Z,16.69
2023-05-14T05:12:52.037Z,17.09
2023-05-14T05:15:19.716Z,17.46
2023-05-14T05:17:47.417Z,17.67
2023-05-14T05:20:15.461Z,18.34
2023-05-14T05:22:44.776Z,18.38
2023-05-14T05:25:13.015Z,18.50
2023-05-14T05:27:40.712Z,18.72
2023-05-14T05:30:09.979Z,18.95
2023-05-14T05:32:37.869Z,18.35
2023-05-14T05:35:06.569Z,19.02
2023-05-14T05:37:34.271Z,19.24
2023-05-14T05:40:04.281Z,19.23
2023-05-14T05:42:31.982Z,19.06
2023-05-14T05:44:59.645Z,18.68
2023-05-14T05:47:27.619Z,19.53
2023-05-14T05:49:55.650Z,19.98
2023-05-14T05:52:23.325Z,20.47
2023-05-14T05:57:34.166Z,20.44
2023-05-14T06:00:07.979Z,19.95
2023-05-14T06:02:36.044Z,20.15
2023-05-14T06:05:03.904Z,19.71
2023-05-14T06:07:32.047Z,20.74
2023-05-14T06:09:59.726Z,20.52
2023-05-14T06:12:27.459Z,20.77
2023-05-14T06:14:57.856Z,21.73
2023-05-14T06:17:25.711Z,20.92
2023-05-14T06:19:54.061Z,21.26
2023-05-14T06:22:21.988Z,20.63
2023-05-14T06:24:49.723Z,20.60
2023-05-14T06:27:17.422Z,20.52
2023-05-14T06:29:45.317Z,20.80
2023-05-14T06:32:15.780Z,21.28
2023-05-14T06:34:43.847Z,21.10
2023-05-14T06:37:12.330Z,21.86
2023-05-14T06:39:40.562Z,21.96
2023-05-14T06:42:08.560Z,21.40
2023-05-14T06:44:36.266Z,21.63
2023-05-14T06:47:03.926Z,21.40
2023-05-14T06:49:33.339Z,21.28
2023-05-14T06:52:01.022Z,22.91
2023-05-14T06:54:28.723Z,22.11
2023-05-14T06:56:56.379Z,22.28
2023-05-14T06:59:24.045Z,22.33
2023-05-14T07:01:51.805Z,23.19
2023-05-14T07:04:19.975Z,23.02
2023-05-14T07:06:49.359Z,23.15
2023-05-14T07:09:17.469Z,23.36
2023-05-14T07:11:45.173Z,22.82
2023-05-14T07:14:12.990Z,23.62
2023-05-14T07:16:41.879Z,23.53
2023-05-14T07:19:09.952Z,23.69
2023-05-14T07:21:37.704Z,24.01
2023-05-14T07:24:07.386Z,23.78
2023-05-14T07:26:35.282Z,23.80
2023-05-14T07:29:02.950Z,23.66
2023-05-14T07:31:30.864Z,23.91
2023-05-14T07:33:58.904Z,24.23
2023-05-14T07:36:26.674Z,24.54
2023-05-14T07:38:54.326Z,24.19
2023-05-14T07:41:23.365Z,24.89
2023-05-14T07:43:51.024Z,24.64
2023-05-14T07:46:18.671Z,24.25
2023-05-14T07:48:46.608Z,25.07
2023-05-14T07:51:14.252Z,25.14
2023-05-14T07:53:42.206Z,24.77
2023-05-14T07:56:09.868Z,24.82
2023-05-14T07:58:38.942Z,24.77
2023-05-14T08:01:09.160Z,24.42
2023-05-14T08:03:37.048Z,24.82
2023-05-14T08:06:05.139Z,25.30
2023-05-14T08:08:32.956Z,25.47
2023-05-14T08:11:00.761Z,24.91
2023-05-14T08:13:28.546Z,24.67
2023-05-14T08:15:57.768Z,24.79
2023-05-14T08:18:25.619Z,25.28
2023-05-14T08:20:53.279Z,25.27
2023-05-14T08:23:20.964Z,25.10
2023-05-14T08:25:48.596Z,25.37
2023-05-14T08:28:16.317Z,25.97
2023-05-14T08:30:43.982Z,25.69
2023-05-14T08:33:13.109Z,25.57
2023-05-14T08:35:40.805Z,25.19
2023-05-14T08:38:08.693Z,25.94
2023-05-14T08:40:36.483Z,25.56
2023-05-14T08:43:04.179Z,25.77
2023-05-14T08:45:34.348Z,24.87
2023-05-14T08:48:02.774Z,25.45
2023-05-14T08:53:17.123Z,26.53
2023-05-14T08:55:45.523Z,26.69
2023-05-14T08:58:13.343Z,25.94
2023-05-14T09:00:41.143Z,25.13
2023-05-14T09:03:08.933Z,26.22
2023-05-14T09:05:36.687Z,26.18
2023-05-14T09:08:04.460Z,26.20
2023-05-14T09:10:33.647Z,25.79
2023-05-14T09:13:01.384Z,26.91
2023-05-14T09:15:29.360Z,26.05
2023-05-14T09:17:57.698Z,26.35
2023-05-14T09:23:01.768Z,25.78
2023-05-14T09:25:33.539Z,25.86
2023-05-14T09:28:01.227Z,25.60
2023-05-14T09:30:28.954Z,26.80
2023-05-14T09:32:56.649Z,26.62
2023-05-14T09:35:25.470Z,26.31
2023-05-14T09:37:54.327Z,26.23
2023-05-14T09:40:24.409Z,27.03
2023-05-14T09:42:53.964Z,27.29
2023-05-14T09:45:21.658Z,26.89
2023-05-14T09:47:49.480Z,27.36
2023-05-14T09:50:17.472Z,27.19
2023-05-14T09:52:45.134Z,27.23
2023-05-14T09:55:13.049Z,27.86
2023-05-14T09:57:41.014Z,27.21
2023-05-14T10:00:12.732Z,27.54
2023-05-14T10:02:41.845Z,26.37
2023-05-14T10:05:10.388Z,27.01
2023-05-14T10:07:41.708Z,26.21
2023-05-14T10:10:12.862Z,26.06
2023-05-14T10:12:41.807Z,27.19
2023-05-14T10:15:16.846Z,27.25
2023-05-14T10:17:46.142Z,26.42
2023-05-14T10:20:16.705Z,25.39
2023-05-14T10:22:44.450Z,26.46
2023-05-14T10:25:12.400Z,27.59
2023-05-14T10:27:40.452Z,27.55
2023-05-14T10:30:13.742Z,26.79
2023-05-14T10:32:42.055Z,27.81
2023-05-14T10:35:20.693Z,26.74
2023-05-14T10:37:48.778Z,26.84
2023-05-14T10:40:17.909Z,27.28
2023-05-14T10:42:47.546Z,27.68
2023-05-14T10:45:17.150Z,26.70
2023-05-14T10:47:47.456Z,26.30
2023-05-14T10:50:17.411Z,27.63
2023-05-14T10:52:46.238Z,28.38
2023-05-14T10:55:15.787Z,28.05
2023-05-14T10:57:45.802Z,27.61
2023-05-14T11:00:14.882Z,28.73
2023-05-14T11:02:45.732Z,29.21
2023-05-14T11:05:16.039Z,28.65
2023-05-14T11:07:45.045Z,28.58
2023-05-14T11:10:14.249Z,29.77
2023-05-14T11:12:43.053Z,29.55
2023-05-14T11:15:12.046Z,30.77
2023-05-14T11:17:41.271Z,30.57
2023-05-14T11:20:12.278Z,29.87
2023-05-14T11:22:41.403Z,28.25
2023-05-14T11:25:10.214Z,30.42
2023-05-14T11:27:39.441Z,30.34
2023-05-14T11:30:14.232Z,29.25
2023-05-14T11:32:42.187Z,29.67
2023-05-14T11:35:11.410Z,29.69
2023-05-14T11:37:39.058Z,29.03
2023-05-14T11:40:10.883Z,27.57
2023-05-14T11:42:38.663Z,28.44
2023-05-14T11:45:07.546Z,28.45
2023-05-14T11:47:35.205Z,28.33
2023-05-14T11:50:02.890Z,29.98
2023-05-14T11:52:31.917Z,29.54
2023-05-14T11:54:59.557Z,30.81
2023-05-14T11:57:27.192Z,28.08
2023-05-14T11:59:57.994Z,29.48
2023-05-14T12:02:48.528Z,29.03
2023-05-14T12:05:16.323Z,30.52
2023-05-14T12:07:47.265Z,29.63
2023-05-14T12:10:15.252Z,30.49
2023-05-14T12:12:46.655Z,29.60
2023-05-14T12:15:16.396Z,30.27
2023-05-14T12:17:44.453Z,31.14
2023-05-14T12:20:13.211Z,30.26
2023-05-14T12:22:43.244Z,30.90
2023-05-14T12:25:14.547Z,30.25
2023-05-14T12:27:45.019Z,29.55
2023-05-14T12:30:21.212Z,30.09
2023-05-14T12:32:55.294Z,31.43
2023-05-14T12:35:23.755Z,31.62
2023-05-14T12:37:51.667Z,32.73
2023-05-14T12:40:21.043Z,30.94
2023-05-14T12:42:48.707Z,31.36
2023-05-14T12:45:16.349Z,31.77
2023-05-14T12:47:44.046Z,31.04
2023-05-14T12:50:12.404Z,31.02
2023-05-14T12:52:40.312Z,32.12
2023-05-14T12:55:09.068Z,32.25
2023-05-14T12:57:39.092Z,33.90
2023-05-14T13:00:08.611Z,34.14
2023-05-14T13:02:42.070Z,34.39
2023-05-14T13:05:11.357Z,35.89
2023-05-14T13:07:39.314Z,35.82
2023-05-14T13:10:08.211Z,33.38
2023-05-14T13:12:35.998Z,35.04
2023-05-14T13:15:05.856Z,34.33
2023-05-14T13:17:33.756Z,35.24
2023-05-14T13:20:01.436Z,35.40
2023-05-14T13:22:29.107Z,35.97
2023-05-14T13:24:56.790Z,34.44
2023-05-14T13:27:24.488Z,33.22
2023-05-14T13:29:52.171Z,33.75
2023-05-14T13:32:21.409Z,30.86
2023-05-14T13:34:49.121Z,31.01
2023-05-14T13:37:16.972Z,29.95
2023-05-14T13:39:44.707Z,30.24
2023-05-14T13:42:12.383Z,30.29
2023-05-14T13:44:40.234Z,29.78
2023-05-14T13:47:08.216Z,30.14
2023-05-14T13:49:37.361Z,30.52
2023-05-14T13:52:06.219Z,29.63
2023-05-14T13:54:33.939Z,29.48
2023-05-14T13:57:01.626Z,29.43
2023-05-14T13:59:29.323Z,29.53
2023-05-14T14:01:57.218Z,29.83
2023-05-14T14:04:28.912Z,29.80
2023-05-14T14:06:58.121Z,29.64
2023-05-14T14:09:26.265Z,31.21
2023-05-14T14:11:54.025Z,34.24
2023-05-14T14:14:21.951Z,34.07
2023-05-14T14:16:49.599Z,34.60
2023-05-14T14:19:18.505Z,33.96
2023-05-14T14:21:46.378Z,34.17
2023-05-14T14:24:15.473Z,34.04
2023-05-14T14:26:43.680Z,33.96
2023-05-14T14:29:11.384Z,34.90
2023-05-14T14:31:39.097Z,35.30
2023-05-14T14:34:06.789Z,32.68
2023-05-14T14:36:34.659Z,32.40
2023-05-14T14:39:02.544Z,33.40
2023-05-14T14:41:31.659Z,33.21
2023-05-14T14:43:59.312Z,33.10
2023-05-14T14:46:27.608Z,34.73
2023-05-14T14:48:55.510Z,32.90
2023-05-14T14:51:23.328Z,32.64
2023-05-14T14:53:51.178Z,31.98
2023-05-14T14:56:18.870Z,32.83
2023-05-14T14:58:47.981Z,30.89
2023-05-14T15:01:15.907Z,31.90
2023-05-14T15:03:45.640Z,29.99
2023-05-14T15:06:13.677Z,30.29
2023-05-14T15:08:41.802Z,30.31
2023-05-14T15:11:09.885Z,30.83
2023-05-14T15:13:37.557Z,31.51
2023-05-14T15:16:07.163Z,31.49
2023-05-14T15:18:34.905Z,32.24
2023-05-14T15:21:02.632Z,31.91
2023-05-14T15:23:30.379Z,32.80
2023-05-14T15:25:58.150Z,32.09
2023-05-14T15:28:25.858Z,31.77
2023-05-14T15:30:54.447Z,31.47
2023-05-14T15:33:23.723Z,30.41
2023-05-14T15:35:51.512Z,30.84
2023-05-14T15:38:19.530Z,33.05
2023-05-14T15:40:47.234Z,32.61
2023-05-14T15:43:14.961Z,32.75
2023-05-14T15:45:43.890Z,30.04
2023-05-14T15:48:11.799Z,30.90
2023-05-14T15:50:41.897Z,31.20
2023-05-14T15:53:09.865Z,32.50
2023-05-14T15:55:37.547Z,30.85
2023-05-14T15:58:05.445Z,31.71
2023-05-14T16:00:33.289Z,30.69
2023-05-14T16:03:01.040Z,30.27
2023-05-14T16:05:28.945Z,29.96
2023-05-14T16:07:58.107Z,29.79
2023-05-14T16:10:26.106Z,29.74
2023-05-14T16:12:54.015Z,30.08
2023-05-14T16:15:21.974Z,30.85
2023-05-14T16:17:49.831Z,29.74
2023-05-14T16:20:17.768Z,30.12
2023-05-14T16:22:45.877Z,29.97
2023-05-14T16:25:15.146Z,29.22
2023-05-14T16:27:43.129Z,28.24
2023-05-14T16:30:11.603Z,28.64
2023-05-14T16:32:40.452Z,28.45
2023-05-14T16:35:08.729Z,28.29
2023-05-14T16:37:36.567Z,26.53
2023-05-14T16:40:05.211Z,27.07
2023-05-14T16:42:34.265Z,26.40
2023-05-14T16:45:01.959Z,25.72
2023-05-14T16:47:29.746Z,25.88
2023-05-14T16:49:57.639Z,25.02
2023-05-14T16:52:41.432Z,24.95
2023-05-14T16:55:10.547Z,24.79
2023-05-14T16:57:39.683Z,25.92
2023-05-14T17:00:09.556Z,25.40
2023-05-14T17:02:37.342Z,25.71
2023-05-14T17:05:05.711Z,25.49
2023-05-14T17:07:33.428Z,25.66
2023-05-14T17:10:01.243Z,26.61
2023-05-14T17:12:29.142Z,26.24
2023-05-14T17:14:58.190Z,26.27
2023-05-14T17:17:25.925Z,26.10
2023-05-14T17:19:54.150Z,26.66
2023-05-14T17:22:21.833Z,26.26
2023-05-14T17:24:49.547Z,26.44
2023-05-14T17:27:17.196Z,25.90
2023-05-14T17:29:44.915Z,26.70
2023-05-14T17:32:14.120Z,26.37
2023-05-14T17:34:41.849Z,25.43
2023-05-14T17:37:09.580Z,25.67
2023-05-14T17:39:37.358Z,26.68
2023-05-14T17:42:06.121Z,25.23
2023-05-14T17:44:33.802Z,26.34
2023-05-14T17:47:03.077Z,25.77
2023-05-14T17:49:32.274Z,26.16
2023-05-14T17:52:00.398Z,25.26
2023-05-14T17:54:28.152Z,25.10
2023-05-14T17:56:56.175Z,25.15
2023-05-14T17:59:24.362Z,24.47
2023-05-14T18:01:52.371Z,24.71
2023-05-14T18:04:20.402Z,24.28
2023-05-14T18:06:49.563Z,24.27
2023-05-14T18:09:17.355Z,23.93
2023-05-14T18:14:45.422Z,23.35
2023-05-14T18:17:13.653Z,23.20
2023-05-14T18:19:41.738Z,23.30
2023-05-14T18:22:10.810Z,23.51
2023-05-14T18:24:38.779Z,22.91
2023-05-14T18:27:06.905Z,22.80
2023-05-14T18:29:34.609Z,22.62
2023-05-14T18:32:02.487Z,22.74
2023-05-14T18:34:30.251Z,22.54
2023-05-14T18:36:58.598Z,22.40
2023-05-14T18:39:28.177Z,22.52
2023-05-14T18:41:56.737Z,22.40
2023-05-14T18:44:24.669Z,22.53
2023-05-14T18:46:52.453Z,22.42
2023-05-14T18:49:20.466Z,21.76
2023-05-14T18:51:48.282Z,21.63
2023-05-14T18:54:15.936Z,21.66
2023-05-14T18:56:47.488Z,21.65
2023-05-14T18:59:15.601Z,21.85
2023-05-14T19:01:43.438Z,21.81
2023-05-14T19:04:11.459Z,21.47
2023-05-14T19:06:40.277Z,21.58
2023-05-14T19:09:08.065Z,22.50
2023-05-14T19:11:35.895Z,22.44
2023-05-14T19:14:04.975Z,21.25
2023-05-14T19:16:32.800Z,21.05
2023-05-14T19:19:01.037Z,20.84
2023-05-14T19:21:28.789Z,21.01
2023-05-14T19:23:56.532Z,21.60
2023-05-14T19:26:24.237Z,20.85
2023-05-14T19:28:52.659Z,20.56
2023-05-14T19:31:21.761Z,20.60
2023-05-14T19:33:49.769Z,21.22
2023-05-14T19:36:17.482Z,21.36
2023-05-14T19:38:45.147Z,20.97
2023-05-14T19:41:13.144Z,20.28
2023-05-14T19:43:40.910Z,20.86
2023-05-14T19:46:08.743Z,21.05
2023-05-14T19:48:38.805Z,20.55
2023-05-14T19:51:06.503Z,20.51
2023-05-14T19:53:34.325Z,20.94
2023-05-14T19:56:03.510Z,21.26
2023-05-14T19:58:31.207Z,20.75
2023-05-14T20:01:00.946Z,20.52
2023-05-14T20:03:29.769Z,20.82
2023-05-14T20:05:59.156Z,21.28
2023-05-14T20:08:28.998Z,21.22
2023-05-14T20:10:56.719Z,21.60
2023-05-14T20:13:25.236Z,22.13
2023-05-14T20:15:55.054Z,22.20
2023-05-14T20:18:22.951Z,21.22
2023-05-14T20:20:50.624Z,20.78
2023-05-14T20:23:20.707Z,21.12
2023-05-14T20:25:48.702Z,20.95
2023-05-14T20:28:16.423Z,19.95
2023-05-14T20:30:44.126Z,19.70
2023-05-14T20:33:13.395Z,19.73
2023-05-14T20:35:43.796Z,19.99
2023-05-14T20:38:12.755Z,21.26
2023-05-14T20:40:42.232Z,21.18
2023-05-14T20:43:10.054Z,20.18
2023-05-14T20:45:37.738Z,20.25
2023-05-14T20:48:09.846Z,20.98
2023-05-14T20:50:37.707Z,20.55
2023-05-14T20:53:05.490Z,20.57
2023-05-14T20:55:33.182Z,20.27
2023-05-14T20:58:02.512Z,20.13
2023-05-14T21:00:30.371Z,20.27
2023-05-14T21:02:59.547Z,20.47
2023-05-14T21:05:27.737Z,20.15
2023-05-14T21:07:55.690Z,19.52
2023-05-14T21:10:23.891Z,19.73
2023-05-14T21:12:52.365Z,20.50
2023-05-14T21:15:21.643Z,20.60
2023-05-14T21:17:49.452Z,20.61
2023-05-14T21:20:17.186Z,20.42
2023-05-14T21:22:45.214Z,20.37
2023-05-14T21:25:13.179Z,21.35
2023-05-14T21:27:40.867Z,21.37
2023-05-14T21:30:09.715Z,20.92
2023-05-14T21:32:38.925Z,21.23
2023-05-14T21:35:07.535Z,20.76
2023-05-14T21:37:35.219Z,21.28
2023-05-14T21:40:02.961Z,21.36
2023-05-14T21:42:30.885Z,21.33
2023-05-14T21:44:58.585Z,21.41
2023-05-14T21:47:26.379Z,21.57
2023-05-14T21:49:55.667Z,20.56
2023-05-14T21:52:23.359Z,20.35
2023-05-14T21:54:51.019Z,21.19
2023-05-14T21:57:18.764Z,21.53
2023-05-14T21:59:46.589Z,21.46
2023-05-14T22:02:14.348Z,20.68
2023-05-14T22:04:42.141Z,20.99
2023-05-14T22:07:11.345Z,21.13
2023-05-14T22:09:39.190Z,20.78
2023-05-14T22:12:08.616Z,21.50
2023-05-14T22:14:36.455Z,20.61
2023-05-14T22:17:04.725Z,19.76
2023-05-14T22:19:33.040Z,20.71
2023-05-14T22:22:00.838Z,20.56
2023-05-14T22:24:30.009Z,20.72
2023-05-14T22:26:57.729Z,20.58
2023-05-14T22:29:25.432Z,20.62
2023-05-14T22:31:53.393Z,20.03
2023-05-14T22:34:21.139Z,19.53
2023-05-14T22:36:48.907Z,20.42
2023-05-14T22:39:16.584Z,20.44
2023-05-14T22:41:45.896Z,20.53
2023-05-14T22:44:13.587Z,19.70
2023-05-14T22:46:41.370Z,19.30
2023-05-14T22:49:09.133Z,20.53
2023-05-14T22:51:36.792Z,20.31
2023-05-14T22:54:04.931Z,20.51
2023-05-14T22:56:32.768Z,19.93
2023-05-14T22:59:02.029Z,20.23
2023-05-14T23:01:30.446Z,20.35
2023-05-14T23:03:58.545Z,20.15
2023-05-14T23:06:26.286Z,20.71
2023-05-14T23:08:54.041Z,19.54
2023-05-14T23:11:22.748Z,19.12
2023-05-14T23:13:50.574Z,20.16
2023-05-14T23:16:20.648Z,20.42
2023-05-14T23:18:48.721Z,19.45
2023-05-14T23:21:16.486Z,19.70
2023-05-14T23:23:45.376Z,19.99
2023-05-14T23:26:13.146Z,19.38
2023-05-14T23:28:41.142Z,19.01
2023-05-14T23:31:08.846Z,19.68
2023-05-14T23:33:39.838Z,19.78
2023-05-14T23:36:08.651Z,19.11
2023-05-14T23:38:59.489Z,19.32
2023-05-14T23:41:27.392Z,19.49
2023-05-14T23:43:55.368Z,18.99
2023-05-14T23:46:23.261Z,18.78
2023-05-14T23:48:52.420Z,19.54
2023-05-14T23:51:20.130Z,18.96
2023-05-14T23:53:48.206Z,18.50
2023-05-14T23:56:15.872Z,19.06
2023-05-14T23:58:43.984Z,18.70
